sensor_id;sensor_type;location;lat;lon;timestamp;P1;durP1;ratioP1;P2;durP2;ratioP2
21188;SDS011;39071;52.420;20.896;2022-09-02T00:01:40;3.90;;;2.10;;
21188;SDS011;39071;52.420;20.896;2022-09-02T00:04:09;5.43;;;2.00;;
21188;SDS011;39071;52.420;20.896;2022-09-02T00:06:38;2.90;;;1.90;;
21188;SDS011;39071;52.420;20.896;2022-09-02T00:09:05;3.27;;;1.83;;
21188;SDS011;39071;52.420;20.896;2022-09-02T00:11:33;4.07;;;2.00;;
21188;SDS011;39071;52.420;20.896;2022-09-02T00:14:01;4.23;;;1.93;;
21188;SDS011;39071;52.420;20.896;2022-09-02T00:16:32;2.17;;;1.67;;
21188;SDS011;39071;52.420;20.896;2022-09-02T00:18:59;3.93;;;2.03;;
21188;SDS011;39071;52.420;20.896;2022-09-02T00:21:27;3.67;;;1.90;;
21188;SDS011;39071;52.420;20.896;2022-09-02T00:23:54;4.40;;;2.10;;
21188;SDS011;39071;52.420;20.896;2022-09-02T00:26:20;3.30;;;2.17;;
21188;SDS011;39071;52.420;20.896;2022-09-02T00:28:46;4.50;;;2.17;;
21188;SDS011;39071;52.420;20.896;2022-09-02T00:31:12;3.90;;;1.93;;
21188;SDS011;39071;52.420;20.896;2022-09-02T00:33:38;2.53;;;1.77;;
21188;SDS011;39071;52.420;20.896;2022-09-02T00:36:04;3.23;;;2.00;;
21188;SDS011;39071;52.420;20.896;2022-09-02T00:38:31;3.50;;;1.90;;
21188;SDS011;39071;52.420;20.896;2022-09-02T00:41:00;2.70;;;2.00;;
21188;SDS011;39071;52.420;20.896;2022-09-02T00:43:43;3.17;;;2.17;;
21188;SDS011;39071;52.420;20.896;2022-09-02T00:46:15;3.63;;;2.17;;
21188;SDS011;39071;52.420;20.896;2022-09-02T00:48:43;3.13;;;2.10;;
21188;SDS011;39071;52.420;20.896;2022-09-02T00:51:17;5.07;;;2.00;;
21188;SDS011;39071;52.420;20.896;2022-09-02T00:53:43;3.33;;;1.60;;
21188;SDS011;39071;52.420;20.896;2022-09-02T00:56:12;2.90;;;1.63;;
21188;SDS011;39071;52.420;20.896;2022-09-02T00:58:43;6.93;;;1.80;;
21188;SDS011;39071;52.420;20.896;2022-09-02T01:01:10;3.97;;;2.00;;
21188;SDS011;39071;52.420;20.896;2022-09-02T01:03:36;5.13;;;1.93;;
21188;SDS011;39071;52.420;20.896;2022-09-02T01:06:04;3.70;;;1.93;;
21188;SDS011;39071;52.420;20.896;2022-09-02T01:08:32;6.00;;;1.77;;
21188;SDS011;39071;52.420;20.896;2022-09-02T01:11:01;3.03;;;2.00;;
21188;SDS011;39071;52.420;20.896;2022-09-02T01:13:30;3.67;;;1.77;;
21188;SDS011;39071;52.420;20.896;2022-09-02T01:16:16;4.23;;;2.37;;
21188;SDS011;39071;52.420;20.896;2022-09-02T01:18:49;5.80;;;2.60;;
21188;SDS011;39071;52.420;20.896;2022-09-02T01:21:18;3.43;;;1.90;;
21188;SDS011;39071;52.420;20.896;2022-09-02T01:23:44;3.47;;;1.57;;
21188;SDS011;39071;52.420;20.896;2022-09-02T01:26:11;2.73;;;1.60;;
21188;SDS011;39071;52.420;20.896;2022-09-02T01:28:37;2.50;;;1.70;;
21188;SDS011;39071;52.420;20.896;2022-09-02T01:31:03;4.07;;;1.93;;
21188;SDS011;39071;52.420;20.896;2022-09-02T01:33:29;3.63;;;1.73;;
21188;SDS011;39071;52.420;20.896;2022-09-02T01:35:55;3.97;;;1.83;;
21188;SDS011;39071;52.420;20.896;2022-09-02T01:38:21;4.03;;;1.60;;
21188;SDS011;39071;52.420;20.896;2022-09-02T01:40:48;2.83;;;1.60;;
21188;SDS011;39071;52.420;20.896;2022-09-02T01:43:15;2.77;;;1.87;;
21188;SDS011;39071;52.420;20.896;2022-09-02T01:45:43;3.83;;;1.47;;
21188;SDS011;39071;52.420;20.896;2022-09-02T01:48:12;4.53;;;1.97;;
21188;SDS011;39071;52.420;20.896;2022-09-02T01:50:40;2.23;;;1.50;;
21188;SDS011;39071;52.420;20.896;2022-09-02T01:53:09;1.90;;;1.23;;
21188;SDS011;39071;52.420;20.896;2022-09-02T01:55:35;3.73;;;1.80;;
21188;SDS011;39071;52.420;20.896;2022-09-02T01:58:01;4.70;;;1.80;;
21188;SDS011;39071;52.420;20.896;2022-09-02T02:00:27;2.30;;;1.57;;
21188;SDS011;39071;52.420;20.896;2022-09-02T02:02:54;2.83;;;1.33;;
21188;SDS011;39071;52.420;20.896;2022-09-02T02:05:20;3.33;;;1.90;;
21188;SDS011;39071;52.420;20.896;2022-09-02T02:07:46;2.90;;;1.60;;
21188;SDS011;39071;52.420;20.896;2022-09-02T02:10:12;3.37;;;1.47;;
21188;SDS011;39071;52.420;20.896;2022-09-02T02:12:41;2.77;;;1.77;;
21188;SDS011;39071;52.420;20.896;2022-09-02T02:15:09;2.93;;;1.50;;
21188;SDS011;39071;52.420;20.896;2022-09-02T02:17:36;4.43;;;1.87;;
21188;SDS011;39071;52.420;20.896;2022-09-02T02:20:03;4.03;;;1.60;;
21188;SDS011;39071;52.420;20.896;2022-09-02T02:22:29;3.07;;;2.00;;
21188;SDS011;39071;52.420;20.896;2022-09-02T02:24:55;2.27;;;1.60;;
21188;SDS011;39071;52.420;20.896;2022-09-02T02:27:21;3.73;;;1.83;;
21188;SDS011;39071;52.420;20.896;2022-09-02T02:29:47;5.23;;;1.70;;
21188;SDS011;39071;52.420;20.896;2022-09-02T02:32:13;3.53;;;2.30;;
21188;SDS011;39071;52.420;20.896;2022-09-02T02:34:39;2.80;;;1.57;;
21188;SDS011;39071;52.420;20.896;2022-09-02T02:37:05;2.50;;;1.50;;
21188;SDS011;39071;52.420;20.896;2022-09-02T02:39:31;3.43;;;2.00;;
21188;SDS011;39071;52.420;20.896;2022-09-02T02:41:57;5.63;;;1.60;;
21188;SDS011;39071;52.420;20.896;2022-09-02T02:44:22;3.30;;;2.00;;
21188;SDS011;39071;52.420;20.896;2022-09-02T02:46:49;2.23;;;1.50;;
21188;SDS011;39071;52.420;20.896;2022-09-02T02:49:14;4.23;;;1.73;;
21188;SDS011;39071;52.420;20.896;2022-09-02T02:51:40;3.07;;;1.83;;
21188;SDS011;39071;52.420;20.896;2022-09-02T02:54:07;3.20;;;1.90;;
21188;SDS011;39071;52.420;20.896;2022-09-02T02:56:32;6.80;;;2.20;;
21188;SDS011;39071;52.420;20.896;2022-09-02T02:58:59;1.67;;;1.37;;
21188;SDS011;39071;52.420;20.896;2022-09-02T03:01:27;3.77;;;1.40;;
21188;SDS011;39071;52.420;20.896;2022-09-02T03:03:54;5.07;;;1.80;;
21188;SDS011;39071;52.420;20.896;2022-09-02T03:06:20;3.73;;;1.70;;
21188;SDS011;39071;52.420;20.896;2022-09-02T03:08:46;2.93;;;1.43;;
21188;SDS011;39071;52.420;20.896;2022-09-02T03:11:13;2.77;;;1.87;;
21188;SDS011;39071;52.420;20.896;2022-09-02T03:13:40;4.10;;;1.50;;
21188;SDS011;39071;52.420;20.896;2022-09-02T03:16:06;4.27;;;1.87;;
21188;SDS011;39071;52.420;20.896;2022-09-02T03:18:32;3.83;;;1.67;;
21188;SDS011;39071;52.420;20.896;2022-09-02T03:20:58;2.60;;;2.10;;
21188;SDS011;39071;52.420;20.896;2022-09-02T03:23:24;6.40;;;2.33;;
21188;SDS011;39071;52.420;20.896;2022-09-02T03:25:50;4.57;;;1.70;;
21188;SDS011;39071;52.420;20.896;2022-09-02T03:28:16;3.50;;;2.00;;
21188;SDS011;39071;52.420;20.896;2022-09-02T03:30:41;6.23;;;3.50;;
21188;SDS011;39071;52.420;20.896;2022-09-02T03:33:08;4.67;;;1.93;;
21188;SDS011;39071;52.420;20.896;2022-09-02T03:35:37;2.77;;;1.73;;
21188;SDS011;39071;52.420;20.896;2022-09-02T03:38:04;2.87;;;1.50;;
21188;SDS011;39071;52.420;20.896;2022-09-02T03:40:30;2.20;;;1.57;;
21188;SDS011;39071;52.420;20.896;2022-09-02T03:42:55;6.17;;;1.67;;
21188;SDS011;39071;52.420;20.896;2022-09-02T03:45:21;4.50;;;1.80;;
21188;SDS011;39071;52.420;20.896;2022-09-02T03:47:48;5.10;;;1.80;;
21188;SDS011;39071;52.420;20.896;2022-09-02T03:50:29;2.93;;;1.70;;
21188;SDS011;39071;52.420;20.896;2022-09-02T03:52:58;4.40;;;1.50;;
21188;SDS011;39071;52.420;20.896;2022-09-02T03:55:24;4.63;;;2.00;;
21188;SDS011;39071;52.420;20.896;2022-09-02T03:57:50;2.17;;;1.33;;
21188;SDS011;39071;52.420;20.896;2022-09-02T04:00:18;1.93;;;1.40;;
21188;SDS011;39071;52.420;20.896;2022-09-02T04:02:46;2.27;;;1.47;;
21188;SDS011;39071;52.420;20.896;2022-09-02T04:05:12;4.07;;;1.70;;
21188;SDS011;39071;52.420;20.896;2022-09-02T04:07:38;3.63;;;1.53;;
21188;SDS011;39071;52.420;20.896;2022-09-02T04:10:04;5.53;;;1.37;;
21188;SDS011;39071;52.420;20.896;2022-09-02T04:12:33;5.90;;;1.77;;
21188;SDS011;39071;52.420;20.896;2022-09-02T04:14:59;19.10;;;2.20;;
21188;SDS011;39071;52.420;20.896;2022-09-02T04:17:26;11.27;;;2.00;;
21188;SDS011;39071;52.420;20.896;2022-09-02T04:19:53;3.77;;;1.63;;
21188;SDS011;39071;52.420;20.896;2022-09-02T04:22:19;2.87;;;1.43;;
21188;SDS011;39071;52.420;20.896;2022-09-02T04:24:45;7.37;;;1.60;;
21188;SDS011;39071;52.420;20.896;2022-09-02T04:27:10;3.30;;;1.43;;
21188;SDS011;39071;52.420;20.896;2022-09-02T04:29:36;3.97;;;1.47;;
21188;SDS011;39071;52.420;20.896;2022-09-02T04:32:02;3.27;;;1.43;;
21188;SDS011;39071;52.420;20.896;2022-09-02T04:34:28;3.73;;;1.50;;
21188;SDS011;39071;52.420;20.896;2022-09-02T04:36:53;6.00;;;1.50;;
21188;SDS011;39071;52.420;20.896;2022-09-02T04:39:20;4.23;;;1.50;;
21188;SDS011;39071;52.420;20.896;2022-09-02T04:41:46;2.37;;;1.60;;
21188;SDS011;39071;52.420;20.896;2022-09-02T04:44:12;4.27;;;1.60;;
21188;SDS011;39071;52.420;20.896;2022-09-02T04:46:37;2.73;;;1.27;;
21188;SDS011;39071;52.420;20.896;2022-09-02T04:49:04;5.50;;;1.45;;
21188;SDS011;39071;52.420;20.896;2022-09-02T04:51:29;2.75;;;1.10;;
21188;SDS011;39071;52.420;20.896;2022-09-02T04:53:55;1.98;;;0.98;;
21188;SDS011;39071;52.420;20.896;2022-09-02T04:56:22;4.43;;;1.08;;
21188;SDS011;39071;52.420;20.896;2022-09-02T04:58:50;3.80;;;1.35;;
21188;SDS011;39071;52.420;20.896;2022-09-02T05:01:18;3.50;;;1.20;;
21188;SDS011;39071;52.420;20.896;2022-09-02T05:03:47;2.17;;;1.17;;
21188;SDS011;39071;52.420;20.896;2022-09-02T05:06:14;4.97;;;1.23;;
21188;SDS011;39071;52.420;20.896;2022-09-02T05:08:41;6.63;;;1.55;;
21188;SDS011;39071;52.420;20.896;2022-09-02T05:11:15;7.07;;;1.35;;
21188;SDS011;39071;52.420;20.896;2022-09-02T05:13:43;5.28;;;1.20;;
21188;SDS011;39071;52.420;20.896;2022-09-02T05:16:13;2.13;;;1.52;;
21188;SDS011;39071;52.420;20.896;2022-09-02T05:18:39;7.65;;;2.42;;
21188;SDS011;39071;52.420;20.896;2022-09-02T05:21:05;2.63;;;2.05;;
21188;SDS011;39071;52.420;20.896;2022-09-02T05:23:31;2.85;;;2.10;;
21188;SDS011;39071;52.420;20.896;2022-09-02T05:25:58;3.75;;;1.95;;
21188;SDS011;39071;52.420;20.896;2022-09-02T05:28:28;2.40;;;1.55;;
21188;SDS011;39071;52.420;20.896;2022-09-02T05:30:54;2.42;;;1.17;;
21188;SDS011;39071;52.420;20.896;2022-09-02T05:33:19;5.13;;;1.40;;
21188;SDS011;39071;52.420;20.896;2022-09-02T05:35:46;1.40;;;1.13;;
21188;SDS011;39071;52.420;20.896;2022-09-02T05:38:12;2.05;;;1.30;;
21188;SDS011;39071;52.420;20.896;2022-09-02T05:40:38;3.78;;;1.10;;
21188;SDS011;39071;52.420;20.896;2022-09-02T05:43:04;6.00;;;1.55;;
21188;SDS011;39071;52.420;20.896;2022-09-02T05:45:30;3.55;;;1.48;;
21188;SDS011;39071;52.420;20.896;2022-09-02T05:47:58;2.92;;;1.70;;
21188;SDS011;39071;52.420;20.896;2022-09-02T05:50:23;5.78;;;1.10;;
21188;SDS011;39071;52.420;20.896;2022-09-02T05:52:49;1.92;;;1.27;;
21188;SDS011;39071;52.420;20.896;2022-09-02T05:55:15;3.25;;;1.02;;
21188;SDS011;39071;52.420;20.896;2022-09-02T05:57:41;4.47;;;1.10;;
21188;SDS011;39071;52.420;20.896;2022-09-02T06:00:10;2.38;;;1.33;;
21188;SDS011;39071;52.420;20.896;2022-09-02T06:02:36;2.67;;;1.27;;
21188;SDS011;39071;52.420;20.896;2022-09-02T06:05:02;7.10;;;1.60;;
21188;SDS011;39071;52.420;20.896;2022-09-02T06:07:28;4.30;;;1.55;;
21188;SDS011;39071;52.420;20.896;2022-09-02T06:09:54;3.40;;;1.20;;
21188;SDS011;39071;52.420;20.896;2022-09-02T06:12:20;4.55;;;1.08;;
21188;SDS011;39071;52.420;20.896;2022-09-02T06:14:47;1.92;;;0.90;;
21188;SDS011;39071;52.420;20.896;2022-09-02T06:17:13;2.25;;;1.10;;
21188;SDS011;39071;52.420;20.896;2022-09-02T06:19:39;1.85;;;0.95;;
21188;SDS011;39071;52.420;20.896;2022-09-02T06:22:05;2.50;;;1.05;;
21188;SDS011;39071;52.420;20.896;2022-09-02T06:24:31;2.13;;;0.85;;
21188;SDS011;39071;52.420;20.896;2022-09-02T06:26:57;2.20;;;0.80;;
21188;SDS011;39071;52.420;20.896;2022-09-02T06:29:25;6.95;;;1.17;;
21188;SDS011;39071;52.420;20.896;2022-09-02T06:31:51;4.25;;;1.02;;
21188;SDS011;39071;52.420;20.896;2022-09-02T06:34:19;5.65;;;0.77;;
21188;SDS011;39071;52.420;20.896;2022-09-02T06:36:47;1.52;;;0.60;;
21188;SDS011;39071;52.420;20.896;2022-09-02T06:39:15;5.10;;;1.58;;
21188;SDS011;39071;52.420;20.896;2022-09-02T06:41:43;3.10;;;0.82;;
21188;SDS011;39071;52.420;20.896;2022-09-02T06:44:11;3.17;;;1.02;;
21188;SDS011;39071;52.420;20.896;2022-09-02T06:46:38;1.85;;;0.68;;
21188;SDS011;39071;52.420;20.896;2022-09-02T06:49:07;3.20;;;0.70;;
21188;SDS011;39071;52.420;20.896;2022-09-02T06:51:38;5.60;;;1.15;;
21188;SDS011;39071;52.420;20.896;2022-09-02T06:54:06;1.10;;;0.70;;
21188;SDS011;39071;52.420;20.896;2022-09-02T06:56:33;2.42;;;1.10;;
21188;SDS011;39071;52.420;20.896;2022-09-02T06:58:59;2.15;;;0.63;;
21188;SDS011;39071;52.420;20.896;2022-09-02T07:01:27;2.03;;;1.00;;
21188;SDS011;39071;52.420;20.896;2022-09-02T07:03:54;3.25;;;0.80;;
21188;SDS011;39071;52.420;20.896;2022-09-02T07:06:39;1.77;;;0.93;;
21188;SDS011;39071;52.420;20.896;2022-09-02T07:09:08;2.83;;;0.75;;
21188;SDS011;39071;52.420;20.896;2022-09-02T07:11:36;3.42;;;0.80;;
21188;SDS011;39071;52.420;20.896;2022-09-02T07:14:02;1.70;;;0.60;;
21188;SDS011;39071;52.420;20.896;2022-09-02T07:16:29;1.67;;;0.50;;
21188;SDS011;39071;52.420;20.896;2022-09-02T07:19:01;0.85;;;0.55;;
21188;SDS011;39071;52.420;20.896;2022-09-02T07:21:28;0.77;;;0.52;;
21188;SDS011;39071;52.420;20.896;2022-09-02T07:23:56;2.35;;;0.77;;
21188;SDS011;39071;52.420;20.896;2022-09-02T07:26:24;3.30;;;0.70;;
21188;SDS011;39071;52.420;20.896;2022-09-02T07:28:50;1.05;;;0.80;;
21188;SDS011;39071;52.420;20.896;2022-09-02T07:31:16;4.22;;;0.77;;
21188;SDS011;39071;52.420;20.896;2022-09-02T07:33:43;1.35;;;0.40;;
21188;SDS011;39071;52.420;20.896;2022-09-02T07:36:10;1.10;;;0.50;;
21188;SDS011;39071;52.420;20.896;2022-09-02T07:38:37;1.75;;;0.85;;
21188;SDS011;39071;52.420;20.896;2022-09-02T07:41:04;3.38;;;1.00;;
21188;SDS011;39071;52.420;20.896;2022-09-02T07:43:32;4.88;;;0.52;;
21188;SDS011;39071;52.420;20.896;2022-09-02T07:45:58;1.85;;;0.52;;
21188;SDS011;39071;52.420;20.896;2022-09-02T07:48:25;2.90;;;0.80;;
21188;SDS011;39071;52.420;20.896;2022-09-02T07:50:52;2.33;;;0.75;;
21188;SDS011;39071;52.420;20.896;2022-09-02T07:53:18;2.42;;;0.50;;
21188;SDS011;39071;52.420;20.896;2022-09-02T07:55:44;5.20;;;1.00;;
21188;SDS011;39071;52.420;20.896;2022-09-02T07:58:11;4.05;;;0.50;;
21188;SDS011;39071;52.420;20.896;2022-09-02T08:00:38;26.77;;;2.35;;
21188;SDS011;39071;52.420;20.896;2022-09-02T08:03:06;2.13;;;0.90;;
21188;SDS011;39071;52.420;20.896;2022-09-02T08:05:34;0.47;;;0.40;;
21188;SDS011;39071;52.420;20.896;2022-09-02T08:08:00;0.73;;;0.35;;
21188;SDS011;39071;52.420;20.896;2022-09-02T08:10:26;5.93;;;0.75;;
21188;SDS011;39071;52.420;20.896;2022-09-02T08:12:54;1.30;;;0.50;;
21188;SDS011;39071;52.420;20.896;2022-09-02T08:15:22;3.60;;;0.50;;
21188;SDS011;39071;52.420;20.896;2022-09-02T08:17:48;12.55;;;1.15;;
21188;SDS011;39071;52.420;20.896;2022-09-02T08:20:15;0.75;;;0.63;;
21188;SDS011;39071;52.420;20.896;2022-09-02T08:22:41;0.98;;;0.47;;
21188;SDS011;39071;52.420;20.896;2022-09-02T08:25:08;0.88;;;0.70;;
21188;SDS011;39071;52.420;20.896;2022-09-02T08:27:34;0.30;;;0.20;;
21188;SDS011;39071;52.420;20.896;2022-09-02T08:30:00;0.70;;;0.55;;
21188;SDS011;39071;52.420;20.896;2022-09-02T08:32:27;1.35;;;0.57;;
21188;SDS011;39071;52.420;20.896;2022-09-02T08:34:53;3.63;;;0.30;;
21188;SDS011;39071;52.420;20.896;2022-09-02T08:37:19;0.45;;;0.22;;
21188;SDS011;39071;52.420;20.896;2022-09-02T08:39:46;2.63;;;0.63;;
21188;SDS011;39071;52.420;20.896;2022-09-02T08:42:20;1.40;;;0.68;;
21188;SDS011;39071;52.420;20.896;2022-09-02T08:44:58;2.55;;;0.52;;
21188;SDS011;39071;52.420;20.896;2022-09-02T08:47:44;0.82;;;0.40;;
21188;SDS011;39071;52.420;20.896;2022-09-02T08:50:14;0.98;;;0.47;;
21188;SDS011;39071;52.420;20.896;2022-09-02T08:52:43;0.30;;;0.22;;
21188;SDS011;39071;52.420;20.896;2022-09-02T08:55:20;1.52;;;0.30;;
21188;SDS011;39071;52.420;20.896;2022-09-02T08:57:50;2.00;;;0.35;;
21188;SDS011;39071;52.420;20.896;2022-09-02T09:00:16;0.68;;;0.40;;
21188;SDS011;39071;52.420;20.896;2022-09-02T09:08:13;0.40;;;0.30;;
21188;SDS011;39071;52.420;20.896;2022-09-02T09:13:40;0.75;;;0.47;;
21188;SDS011;39071;52.420;20.896;2022-09-02T09:21:41;0.50;;;0.30;;
21188;SDS011;39071;52.420;20.896;2022-09-02T09:24:50;1.10;;;0.30;;
21188;SDS011;39071;52.420;20.896;2022-09-02T09:27:01;2.83;;;0.30;;
21188;SDS011;39071;52.420;20.896;2022-09-02T09:29:33;1.63;;;0.60;;
21188;SDS011;39071;52.420;20.896;2022-09-02T09:32:00;0.70;;;0.30;;
21188;SDS011;39071;52.420;20.896;2022-09-02T09:37:30;3.17;;;0.35;;
21188;SDS011;39071;52.420;20.896;2022-09-02T09:50:46;0.68;;;0.25;;
21188;SDS011;39071;52.420;20.896;2022-09-02T09:53:19;1.60;;;0.28;;
21188;SDS011;39071;52.420;20.896;2022-09-02T09:56:06;0.32;;;0.20;;
21188;SDS011;39071;52.420;20.896;2022-09-02T09:58:48;0.32;;;0.15;;
21188;SDS011;39071;52.420;20.896;2022-09-02T10:01:30;0.43;;;0.20;;
21188;SDS011;39071;52.420;20.896;2022-09-02T10:08:58;8.25;;;0.70;;
21188;SDS011;39071;52.420;20.896;2022-09-02T10:11:53;0.85;;;0.30;;
21188;SDS011;39071;52.420;20.896;2022-09-02T10:14:38;4.22;;;0.35;;
21188;SDS011;39071;52.420;20.896;2022-09-02T10:28:23;0.90;;;0.30;;
21188;SDS011;39071;52.420;20.896;2022-09-02T10:39:21;0.93;;;0.30;;
21188;SDS011;39071;52.420;20.896;2022-09-02T10:50:42;2.40;;;0.50;;
21188;SDS011;39071;52.420;20.896;2022-09-02T10:56:07;0.43;;;0.22;;
21188;SDS011;39071;52.420;20.896;2022-09-02T11:01:30;2.22;;;0.50;;
21188;SDS011;39071;52.420;20.896;2022-09-02T11:06:43;1.85;;;0.20;;
21188;SDS011;39071;52.420;20.896;2022-09-02T11:09:13;1.02;;;0.30;;
21188;SDS011;39071;52.420;20.896;2022-09-02T11:11:55;24.50;;;1.98;;
21188;SDS011;39071;52.420;20.896;2022-09-02T11:14:31;1.20;;;0.30;;
21188;SDS011;39071;52.420;20.896;2022-09-02T11:17:34;2.45;;;0.40;;
21188;SDS011;39071;52.420;20.896;2022-09-02T11:20:02;1.17;;;0.60;;
21188;SDS011;39071;52.420;20.896;2022-09-02T11:23:05;2.03;;;0.43;;
21188;SDS011;39071;52.420;20.896;2022-09-02T11:25:37;1.08;;;0.60;;
21188;SDS011;39071;52.420;20.896;2022-09-02T11:28:31;1.27;;;0.28;;
21188;SDS011;39071;52.420;20.896;2022-09-02T11:31:19;1.50;;;0.32;;
21188;SDS011;39071;52.420;20.896;2022-09-02T11:33:51;4.22;;;0.20;;
21188;SDS011;39071;52.420;20.896;2022-09-02T11:36:25;5.78;;;0.65;;
21188;SDS011;39071;52.420;20.896;2022-09-02T11:41:59;2.75;;;0.60;;
21188;SDS011;39071;52.420;20.896;2022-09-02T11:47:14;0.30;;;0.30;;
21188;SDS011;39071;52.420;20.896;2022-09-02T11:55:41;0.52;;;0.20;;
21188;SDS011;39071;52.420;20.896;2022-09-02T11:58:13;0.45;;;0.17;;
21188;SDS011;39071;52.420;20.896;2022-09-02T12:03:42;0.55;;;0.30;;
21188;SDS011;39071;52.420;20.896;2022-09-02T12:06:14;1.95;;;0.20;;
21188;SDS011;39071;52.420;20.896;2022-09-02T12:11:09;0.28;;;0.10;;
21188;SDS011;39071;52.420;20.896;2022-09-02T12:19:47;0.60;;;0.20;;
21188;SDS011;39071;52.420;20.896;2022-09-02T12:24:49;0.28;;;0.20;;
21188;SDS011;39071;52.420;20.896;2022-09-02T12:27:27;0.57;;;0.40;;
21188;SDS011;39071;52.420;20.896;2022-09-02T12:29:56;0.55;;;0.20;;
21188;SDS011;39071;52.420;20.896;2022-09-02T12:35:11;0.47;;;0.43;;
21188;SDS011;39071;52.420;20.896;2022-09-02T12:40:35;1.92;;;0.20;;
21188;SDS011;39071;52.420;20.896;2022-09-02T12:51:51;3.60;;;0.40;;
21188;SDS011;39071;52.420;20.896;2022-09-02T12:57:13;0.57;;;0.30;;
21188;SDS011;39071;52.420;20.896;2022-09-02T12:59:42;0.20;;;0.20;;
21188;SDS011;39071;52.420;20.896;2022-09-02T13:02:43;0.98;;;0.30;;
21188;SDS011;39071;52.420;20.896;2022-09-02T13:11:18;0.95;;;0.55;;
21188;SDS011;39071;52.420;20.896;2022-09-02T13:30:06;0.30;;;0.30;;
21188;SDS011;39071;52.420;20.896;2022-09-02T13:33:07;0.50;;;0.20;;
21188;SDS011;39071;52.420;20.896;2022-09-02T13:35:36;1.35;;;0.22;;
21188;SDS011;39071;52.420;20.896;2022-09-02T13:38:03;0.60;;;0.20;;
21188;SDS011;39071;52.420;20.896;2022-09-02T13:40:33;1.05;;;0.20;;
21188;SDS011;39071;52.420;20.896;2022-09-02T13:45:38;0.13;;;0.10;;
21188;SDS011;39071;52.420;20.896;2022-09-02T13:48:07;0.20;;;0.20;;
21188;SDS011;39071;52.420;20.896;2022-09-02T13:50:45;0.95;;;0.30;;
21188;SDS011;39071;52.420;20.896;2022-09-02T13:53:34;4.78;;;0.25;;
21188;SDS011;39071;52.420;20.896;2022-09-02T13:56:00;0.73;;;0.30;;
21188;SDS011;39071;52.420;20.896;2022-09-02T14:00:54;2.15;;;0.30;;
21188;SDS011;39071;52.420;20.896;2022-09-02T14:03:44;0.85;;;0.22;;
21188;SDS011;39071;52.420;20.896;2022-09-02T14:06:14;1.77;;;0.40;;
21188;SDS011;39071;52.420;20.896;2022-09-02T14:08:42;2.45;;;0.30;;
21188;SDS011;39071;52.420;20.896;2022-09-02T14:11:11;8.70;;;0.90;;
21188;SDS011;39071;52.420;20.896;2022-09-02T14:13:40;3.90;;;0.80;;
21188;SDS011;39071;52.420;20.896;2022-09-02T14:16:26;5.97;;;0.60;;
21188;SDS011;39071;52.420;20.896;2022-09-02T14:21:48;1.58;;;0.52;;
21188;SDS011;39071;52.420;20.896;2022-09-02T14:24:19;1.23;;;0.30;;
21188;SDS011;39071;52.420;20.896;2022-09-02T14:26:47;3.80;;;0.45;;
21188;SDS011;39071;52.420;20.896;2022-09-02T14:29:16;2.58;;;0.40;;
21188;SDS011;39071;52.420;20.896;2022-09-02T14:31:44;0.65;;;0.25;;
21188;SDS011;39071;52.420;20.896;2022-09-02T14:36:57;3.10;;;0.63;;
21188;SDS011;39071;52.420;20.896;2022-09-02T14:39:23;0.55;;;0.40;;
21188;SDS011;39071;52.420;20.896;2022-09-02T14:41:49;0.57;;;0.20;;
21188;SDS011;39071;52.420;20.896;2022-09-02T14:44:20;0.55;;;0.30;;
21188;SDS011;39071;52.420;20.896;2022-09-02T14:46:59;0.75;;;0.30;;
21188;SDS011;39071;52.420;20.896;2022-09-02T14:49:33;2.95;;;0.20;;
21188;SDS011;39071;52.420;20.896;2022-09-02T14:52:14;0.63;;;0.20;;
21188;SDS011;39071;52.420;20.896;2022-09-02T14:54:52;1.65;;;0.20;;
21188;SDS011;39071;52.420;20.896;2022-09-02T14:57:22;4.03;;;0.40;;
21188;SDS011;39071;52.420;20.896;2022-09-02T14:59:53;1.42;;;0.35;;
21188;SDS011;39071;52.420;20.896;2022-09-02T15:04:55;2.88;;;0.38;;
21188;SDS011;39071;52.420;20.896;2022-09-02T15:07:22;0.70;;;0.45;;
21188;SDS011;39071;52.420;20.896;2022-09-02T15:09:48;4.60;;;0.30;;
21188;SDS011;39071;52.420;20.896;2022-09-02T15:12:22;0.60;;;0.40;;
21188;SDS011;39071;52.420;20.896;2022-09-02T15:14:50;1.38;;;0.55;;
21188;SDS011;39071;52.420;20.896;2022-09-02T15:17:16;2.08;;;0.43;;
21188;SDS011;39071;52.420;20.896;2022-09-02T15:19:43;5.95;;;0.47;;
21188;SDS011;39071;52.420;20.896;2022-09-02T15:22:08;2.10;;;0.43;;
21188;SDS011;39071;52.420;20.896;2022-09-02T15:24:34;6.95;;;0.50;;
21188;SDS011;39071;52.420;20.896;2022-09-02T15:27:00;2.08;;;0.30;;
21188;SDS011;39071;52.420;20.896;2022-09-02T15:29:26;1.35;;;0.40;;
21188;SDS011;39071;52.420;20.896;2022-09-02T15:31:52;5.50;;;0.65;;
21188;SDS011;39071;52.420;20.896;2022-09-02T15:34:21;2.33;;;0.30;;
21188;SDS011;39071;52.420;20.896;2022-09-02T15:36:47;3.70;;;0.50;;
21188;SDS011;39071;52.420;20.896;2022-09-02T15:39:13;3.45;;;0.47;;
21188;SDS011;39071;52.420;20.896;2022-09-02T15:41:41;1.27;;;0.40;;
21188;SDS011;39071;52.420;20.896;2022-09-02T15:44:07;0.93;;;0.35;;
21188;SDS011;39071;52.420;20.896;2022-09-02T15:46:33;11.77;;;1.20;;
21188;SDS011;39071;52.420;20.896;2022-09-02T15:49:02;0.20;;;0.20;;
21188;SDS011;39071;52.420;20.896;2022-09-02T15:51:29;3.45;;;0.88;;
21188;SDS011;39071;52.420;20.896;2022-09-02T15:53:57;1.83;;;0.20;;
21188;SDS011;39071;52.420;20.896;2022-09-02T15:56:28;1.02;;;0.40;;
21188;SDS011;39071;52.420;20.896;2022-09-02T15:58:59;1.08;;;0.40;;
21188;SDS011;39071;52.420;20.896;2022-09-02T16:01:28;1.55;;;0.38;;
21188;SDS011;39071;52.420;20.896;2022-09-02T16:03:57;4.03;;;0.40;;
21188;SDS011;39071;52.420;20.896;2022-09-02T16:06:23;2.13;;;0.32;;
21188;SDS011;39071;52.420;20.896;2022-09-02T16:08:49;0.90;;;0.32;;
21188;SDS011;39071;52.420;20.896;2022-09-02T16:11:15;0.30;;;0.30;;
21188;SDS011;39071;52.420;20.896;2022-09-02T16:13:42;11.93;;;0.73;;
21188;SDS011;39071;52.420;20.896;2022-09-02T16:16:08;10.88;;;0.70;;
21188;SDS011;39071;52.420;20.896;2022-09-02T16:18:35;0.20;;;0.20;;
21188;SDS011;39071;52.420;20.896;2022-09-02T16:21:02;11.43;;;0.70;;
21188;SDS011;39071;52.420;20.896;2022-09-02T16:23:32;0.70;;;0.50;;
21188;SDS011;39071;52.420;20.896;2022-09-02T16:28:54;5.97;;;0.80;;
21188;SDS011;39071;52.420;20.896;2022-09-02T16:31:21;4.95;;;0.88;;
21188;SDS011;39071;52.420;20.896;2022-09-02T16:33:53;3.70;;;0.60;;
21188;SDS011;39071;52.420;20.896;2022-09-02T16:36:24;7.57;;;1.02;;
21188;SDS011;39071;52.420;20.896;2022-09-02T16:38:50;2.78;;;0.50;;
21188;SDS011;39071;52.420;20.896;2022-09-02T16:41:20;5.60;;;1.15;;
21188;SDS011;39071;52.420;20.896;2022-09-02T16:43:51;6.60;;;0.57;;
21188;SDS011;39071;52.420;20.896;2022-09-02T16:46:18;5.00;;;0.95;;
21188;SDS011;39071;52.420;20.896;2022-09-02T16:48:44;6.35;;;0.50;;
21188;SDS011;39071;52.420;20.896;2022-09-02T16:51:10;5.55;;;0.57;;
21188;SDS011;39071;52.420;20.896;2022-09-02T16:53:35;2.78;;;0.40;;
21188;SDS011;39071;52.420;20.896;2022-09-02T16:56:01;3.88;;;0.47;;
21188;SDS011;39071;52.420;20.896;2022-09-02T16:58:28;8.25;;;1.55;;
21188;SDS011;39071;52.420;20.896;2022-09-02T17:00:55;9.13;;;0.90;;
21188;SDS011;39071;52.420;20.896;2022-09-02T17:03:21;5.82;;;0.63;;
21188;SDS011;39071;52.420;20.896;2022-09-02T17:05:47;5.35;;;0.70;;
21188;SDS011;39071;52.420;20.896;2022-09-02T17:08:13;4.65;;;0.85;;
21188;SDS011;39071;52.420;20.896;2022-09-02T17:10:39;8.68;;;0.98;;
21188;SDS011;39071;52.420;20.896;2022-09-02T17:13:05;2.10;;;0.40;;
21188;SDS011;39071;52.420;20.896;2022-09-02T17:15:31;5.40;;;0.55;;